Time,TemperatureF,DewpointF,PressureIn,WindDirection,WindDirectionDegrees,WindSpeedMPH,WindSpeedGustMPH,Humidity,HourlyPrecipIn,Conditions,Clouds,dailyrainin,SoftwareType,DateUTC
2013-04-27 00:02:00,54.0,-99.9,30.25,WSW,254,1.0,3.0,-999,-99.99,,,-99.99,,2013-04-27 07:02:00,
2013-04-27 00:11:00,53.0,-99.9,30.25,WNW,283,2.0,2.0,-999,-99.99,,,-99.99,,2013-04-27 07:11:00,
2013-04-27 00:22:00,54.0,-99.9,30.25,NNW,327,3.0,4.0,-999,-99.99,,,-99.99,,2013-04-27 07:22:00,
2013-04-27 00:32:00,54.0,-99.9,30.25,NNW,341,3.0,4.0,-999,-99.99,,,-99.99,,2013-04-27 07:32:00,
2013-04-27 00:42:00,54.0,-99.9,30.25,NW,324,2.0,4.0,-999,-99.99,,,-99.99,,2013-04-27 07:42:00,
2013-04-27 00:52:00,52.0,-99.9,30.25,SW,224,-999.0,2.0,-999,-99.99,,,-99.99,,2013-04-27 07:52:00,
2013-04-27 01:02:00,52.0,-99.9,30.25,North,-999,-999.0,-999.0,-999,-99.99,,,-99.99,,2013-04-27 08:02:00,
2013-04-27 01:12:00,52.0,-99.9,30.25,ESE,107,1.0,2.0,-999,-99.99,,,-99.99,,2013-04-27 08:12:00,
2013-04-27 01:22:00,53.0,-99.9,30.25,NNW,329,2.0,4.0,-999,-99.99,,,-99.99,,2013-04-27 08:22:00,
2013-04-27 01:33:00,52.0,-99.9,30.25,NNW,333,1.0,3.0,-999,-99.99,,,-99.99,,2013-04-27 08:33:00,
2013-04-27 01:42:00,51.0,-99.9,30.25,West,262,1.0,2.0,-999,-99.99,,,-99.99,,2013-04-27 08:42:00,
2013-04-27 01:52:00,51.0,-99.9,30.25,North,3,-999.0,3.0,-999,-99.99,,,-99.99,,2013-04-27 08:52:00,
2013-04-27 02:01:00,51.0,-99.9,30.25,North,6,2.0,4.0,-999,-99.99,,,-99.99,,2013-04-27 09:01:00,
2013-04-27 02:11:00,51.0,-99.9,30.25,East,96,1.0,2.0,-999,-99.99,,,-99.99,,2013-04-27 09:11:00,
2013-04-27 02:22:00,50.0,-99.9,30.25,SSW,205,0.0,1.0,-999,-99.99,,,-99.99,,2013-04-27 09:22:00,
2013-04-27 02:33:00,50.0,-99.9,30.25,North,-999,-999.0,-999.0,-999,-99.99,,,-99.99,,2013-04-27 09:33:00,
2013-04-27 02:43:00,50.0,-99.9,30.26,WNW,291,0.0,2.0,-999,-99.99,,,-99.99,,2013-04-27 09:43:00,
2013-04-27 02:53:00,49.0,-99.9,30.25,SSW,201,2.0,3.0,-999,-99.99,,,-99.99,,2013-04-27 09:53:00,
2013-04-27 03:03:00,49.0,-99.9,30.25,SSE,153,0.0,3.0,-999,-99.99,,,-99.99,,2013-04-27 10:03:00,
2013-04-27 03:12:00,49.0,-99.9,30.25,ESE,121,1.0,2.0,-999,-99.99,,,-99.99,,2013-04-27 10:12:00,
2013-04-27 03:23:00,49.0,-99.9,30.24,ESE,104,2.0,3.0,-999,-99.99,,,-99.99,,2013-04-27 10:23:00,
2013-04-27 03:33:00,49.0,-99.9,30.24,ESE,111,3.0,3.0,-999,-99.99,,,-99.99,,2013-04-27 10:33:00,
2013-04-27 03:42:00,49.0,-99.9,30.24,ESE,106,3.0,4.0,-999,-99.99,,,-99.99,,2013-04-27 10:42:00,
2013-04-27 03:53:00,49.0,-99.9,30.24,ESE,108,2.0,3.0,-999,-99.99,,,-99.99,,2013-04-27 10:53:00,
2013-04-27 04:02:00,48.0,-99.9,30.24,SE,126,2.0,2.0,-999,-99.99,,,-99.99,,2013-04-27 11:02:00,
2013-04-27 04:12:00,48.0,-99.9,30.24,ESE,113,0.0,2.0,-999,-99.99,,,-99.99,,2013-04-27 11:12:00,
2013-04-27 04:22:00,48.0,-99.9,30.24,WNW,298,2.0,3.0,-999,-99.99,,,-99.99,,2013-04-27 11:22:00,
2013-04-27 04:32:00,47.0,-99.9,30.24,West,262,3.0,4.0,-999,-99.99,,,-99.99,,2013-04-27 11:32:00,
2013-04-27 04:42:00,46.0,-99.9,30.24,WSW,237,1.0,2.0,-999,-99.99,,,-99.99,,2013-04-27 11:42:00,
2013-04-27 04:52:00,46.0,-99.9,30.24,WNW,296,1.0,2.0,-999,-99.99,,,-99.99,,2013-04-27 11:52:00,
2013-04-27 05:02:00,46.0,-99.9,30.24,SW,217,-999.0,1.0,-999,-99.99,,,-99.99,,2013-04-27 12:02:00,
2013-04-27 05:11:00,46.0,-99.9,30.24,South,182,1.0,2.0,-999,-99.99,,,-99.99,,2013-04-27 12:11:00,
2013-04-27 05:22:00,46.0,-99.9,30.24,ENE,58,-999.0,1.0,-999,-99.99,,,-99.99,,2013-04-27 12:22:00,
2013-04-27 05:32:00,46.0,-99.9,30.24,SE,130,1.0,2.0,-999,-99.99,,,-99.99,,2013-04-27 12:32:00,
2013-04-27 05:42:00,46.0,-99.9,30.24,West,263,2.0,4.0,-999,-99.99,,,-99.99,,2013-04-27 12:42:00,
2013-04-27 05:52:00,45.0,-99.9,30.25,SW,215,1.0,2.0,-999,-99.99,,,-99.99,,2013-04-27 12:52:00,
2013-04-27 06:02:00,45.0,-99.9,30.25,WSW,246,1.0,2.0,-999,-99.99,,,-99.99,,2013-04-27 13:02:00,
2013-04-27 06:12:00,45.0,-99.9,30.24,SSW,205,-999.0,2.0,-999,-99.99,,,-99.99,,2013-04-27 13:12:00,
2013-04-27 06:22:00,45.0,-99.9,30.24,SSE,164,1.0,2.0,-999,-99.99,,,-99.99,,2013-04-27 13:22:00,
2013-04-27 06:32:00,45.0,-99.9,30.24,North,349,-999.0,2.0,-999,-99.99,,,-99.99,,2013-04-27 13:32:00,
2013-04-27 06:42:00,46.0,-99.9,30.25,North,2,2.0,3.0,-999,-99.99,,,-99.99,,2013-04-27 13:42:00,
2013-04-27 06:52:00,46.0,-99.9,30.25,West,281,2.0,4.0,-999,-99.99,,,-99.99,,2013-04-27 13:52:00,
2013-04-27 07:02:00,46.0,-99.9,30.25,WNW,303,2.0,4.0,-999,-99.99,,,-99.99,,2013-04-27 14:02:00,
2013-04-27 07:11:00,46.0,-99.9,30.25,NNW,348,1.0,3.0,-999,-99.99,,,-99.99,,2013-04-27 14:11:00,
2013-04-27 07:22:00,45.0,-99.9,30.26,SW,233,2.0,3.0,-999,-99.99,,,-99.99,,2013-04-27 14:22:00,
2013-04-27 07:32:00,46.0,-99.9,30.26,SSW,201,2.0,3.0,-999,-99.99,,,-99.99,,2013-04-27 14:32:00,
2013-04-27 07:42:00,46.0,-99.9,30.26,SE,128,1.0,1.0,-999,-99.99,,,-99.99,,2013-04-27 14:42:00,
2013-04-27 07:52:00,47.0,-99.9,30.26,SE,125,1.0,3.0,-999,-99.99,,,-99.99,,2013-04-27 14:52:00,
2013-04-27 08:01:00,47.0,-99.9,30.26,East,99,1.0,3.0,-999,-99.99,,,-99.99,,2013-04-27 15:01:00,
2013-04-27 08:12:00,47.0,-99.9,30.27,SSE,161,1.0,4.0,-999,-99.99,,,-99.99,,2013-04-27 15:12:00,
2013-04-27 08:22:00,47.0,-99.9,30.27,South,180,2.0,3.0,-999,-99.99,,,-99.99,,2013-04-27 15:22:00,
2013-04-27 08:33:00,47.0,-99.9,30.28,SSW,204,2.0,2.0,-999,-99.99,,,-99.99,,2013-04-27 15:33:00,
2013-04-27 08:43:00,48.0,-99.9,30.28,SSW,201,1.0,2.0,-999,-99.99,,,-99.99,,2013-04-27 15:43:00,
2013-04-27 08:53:00,48.0,-99.9,30.28,West,264,2.0,3.0,-999,-99.99,,,-99.99,,2013-04-27 15:53:00,
2013-04-27 09:03:00,48.0,-99.9,30.28,WSW,237,2.0,2.0,-999,-99.99,,,-99.99,,2013-04-27 16:03:00,
2013-04-27 09:13:00,49.0,-99.9,30.29,WSW,239,2.0,2.0,-999,-99.99,,,-99.99,,2013-04-27 16:13:00,
2013-04-27 09:23:00,49.0,-99.9,30.28,SSE,165,3.0,4.0,-999,-99.99,,,-99.99,,2013-04-27 16:23:00,
2013-04-27 09:33:00,49.0,-99.9,30.29,SSE,148,3.0,3.0,-999,-99.99,,,-99.99,,2013-04-27 16:33:00,
2013-04-27 09:42:00,50.0,-99.9,30.28,SE,138,3.0,3.0,-999,-99.99,,,-99.99,,2013-04-27 16:42:00,
2013-04-27 09:53:00,51.0,-99.9,30.28,ESE,117,2.0,6.0,-999,-99.99,,,-99.99,,2013-04-27 16:53:00,
2013-04-27 10:02:00,51.0,-99.9,30.28,SE,127,5.0,7.0,-999,-99.99,,,-99.99,,2013-04-27 17:02:00,
2013-04-27 10:12:00,51.0,-99.9,30.28,SE,134,5.0,7.0,-999,-99.99,,,-99.99,,2013-04-27 17:12:00,
2013-04-27 10:22:00,52.0,-99.9,30.27,SSE,148,4.0,5.0,-999,-99.99,,,-99.99,,2013-04-27 17:22:00,
2013-04-27 10:32:00,52.0,-99.9,30.27,SSE,157,4.0,5.0,-999,-99.99,,,-99.99,,2013-04-27 17:32:00,
2013-04-27 10:42:00,52.0,-99.9,30.28,SE,141,4.0,5.0,-999,-99.99,,,-99.99,,2013-04-27 17:42:00,
2013-04-27 10:53:00,53.0,-99.9,30.28,SSE,157,2.0,4.0,-999,-99.99,,,-99.99,,2013-04-27 17:53:00,
2013-04-27 11:02:00,53.0,-99.9,30.28,South,191,1.0,2.0,-999,-99.99,,,-99.99,,2013-04-27 18:02:00,
2013-04-27 11:12:00,53.0,-99.9,30.27,West,276,4.0,5.0,-999,-99.99,,,-99.99,,2013-04-27 18:12:00,
2013-04-27 11:22:00,54.0,-99.9,30.27,WNW,302,6.0,8.0,-999,-99.99,,,-99.99,,2013-04-27 18:22:00,
2013-04-27 11:32:00,54.0,-99.9,30.29,NW,315,8.0,11.0,-999,-99.99,,,-99.99,,2013-04-27 18:32:00,
2013-04-27 11:42:00,54.0,-99.9,30.28,WNW,295,5.0,8.0,-999,-99.99,,,-99.99,,2013-04-27 18:42:00,
2013-04-27 11:52:00,55.0,-99.9,30.28,WNW,303,5.0,6.0,-999,-99.99,,,-99.99,,2013-04-27 18:52:00,
2013-04-27 12:02:00,55.0,-99.9,30.28,WNW,290,4.0,7.0,-999,-99.99,,,-99.99,,2013-04-27 19:02:00,
2013-04-27 12:11:00,55.0,-99.9,30.28,WNW,303,4.0,5.0,-999,-99.99,,,-99.99,,2013-04-27 19:11:00,
2013-04-27 12:22:00,56.0,-99.9,30.28,NW,312,5.0,8.0,-999,-99.99,,,-99.99,,2013-04-27 19:22:00,
2013-04-27 12:32:00,57.0,-99.9,30.28,NNW,332,5.0,7.0,-999,-99.99,,,-99.99,,2013-04-27 19:32:00,
2013-04-27 12:42:00,56.0,-99.9,30.28,WNW,295,5.0,7.0,-999,-99.99,,,-99.99,,2013-04-27 19:42:00,
2013-04-27 12:53:00,56.0,-99.9,30.28,NW,308,9.0,11.0,-999,-99.99,,,-99.99,,2013-04-27 19:53:00,
2013-04-27 13:02:00,56.0,-99.9,30.28,NW,313,8.0,11.0,-999,-99.99,,,-99.99,,2013-04-27 20:02:00,
2013-04-27 13:11:00,56.0,-99.9,30.28,NW,315,9.0,11.0,-999,-99.99,,,-99.99,,2013-04-27 20:11:00,
2013-04-27 13:22:00,56.0,-99.9,30.27,NW,315,8.0,10.0,-999,-99.99,,,-99.99,,2013-04-27 20:22:00,
2013-04-27 13:32:00,57.0,-99.9,30.27,NW,308,8.0,9.0,-999,-99.99,,,-99.99,,2013-04-27 20:32:00,
2013-04-27 13:42:00,57.0,-99.9,30.27,NW,306,7.0,10.0,-999,-99.99,,,-99.99,,2013-04-27 20:42:00,
2013-04-27 13:52:00,58.0,-99.9,30.28,NW,320,8.0,11.0,-999,-99.99,,,-99.99,,2013-04-27 20:52:00,
2013-04-27 14:02:00,59.0,-99.9,30.27,NW,325,6.0,12.0,-999,-99.99,,,-99.99,,2013-04-27 21:02:00,
2013-04-27 14:12:00,59.0,-99.9,30.27,NW,313,8.0,11.0,-999,-99.99,,,-99.99,,2013-04-27 21:12:00,
2013-04-27 14:22:00,60.0,-99.9,30.27,NW,319,8.0,11.0,-999,-99.99,,,-99.99,,2013-04-27 21:22:00,
2013-04-27 14:33:00,59.0,-99.9,30.28,NW,310,10.0,12.0,-999,-99.99,,,-99.99,,2013-04-27 21:33:00,
2013-04-27 14:43:00,58.0,-99.9,30.28,NW,317,11.0,14.0,-999,-99.99,,,-99.99,,2013-04-27 21:43:00,
2013-04-27 14:53:00,58.0,-99.9,30.28,NW,313,7.0,12.0,-999,-99.99,,,-99.99,,2013-04-27 21:53:00,
2013-04-27 15:03:00,58.0,-99.9,30.28,NW,320,6.0,9.0,-999,-99.99,,,-99.99,,2013-04-27 22:03:00,
2013-04-27 15:13:00,58.0,-99.9,30.28,NNW,330,5.0,11.0,-999,-99.99,,,-99.99,,2013-04-27 22:13:00,
2013-04-27 15:23:00,57.0,-99.9,30.28,NW,320,9.0,12.0,-999,-99.99,,,-99.99,,2013-04-27 22:23:00,
2013-04-27 15:32:00,56.0,-99.9,30.28,NW,320,9.0,15.0,-999,-99.99,,,-99.99,,2013-04-27 22:32:00,
2013-04-27 15:42:00,55.0,-99.9,30.28,NW,321,10.0,14.0,-999,-99.99,,,-99.99,,2013-04-27 22:42:00,
2013-04-27 15:53:00,56.0,-99.9,30.28,NW,317,7.0,10.0,-999,-99.99,,,-99.99,,2013-04-27 22:53:00,
2013-04-27 16:02:00,56.0,-99.9,30.27,NW,309,5.0,10.0,-999,-99.99,,,-99.99,,2013-04-27 23:02:00,
2013-04-27 16:12:00,55.0,-99.9,30.27,NW,304,5.0,7.0,-999,-99.99,,,-99.99,,2013-04-27 23:12:00,
2013-04-27 16:22:00,54.0,-99.9,30.27,NW,311,9.0,11.0,-999,-99.99,,,-99.99,,2013-04-27 23:22:00,
2013-04-27 16:32:00,53.0,-99.9,30.27,NW,318,10.0,13.0,-999,-99.99,,,-99.99,,2013-04-27 23:32:00,
2013-04-27 16:42:00,53.0,-99.9,30.26,NW,318,9.0,11.0,-999,-99.99,,,-99.99,,2013-04-27 23:42:00,
2013-04-27 16:52:00,53.0,-99.9,30.27,NNW,331,5.0,11.0,-999,-99.99,,,-99.99,,2013-04-27 23:52:00,
2013-04-27 17:02:00,53.0,-99.9,30.27,NNW,327,7.0,9.0,-999,-99.99,,,-99.99,,2013-04-28 00:02:00,
2013-04-27 17:12:00,53.0,-99.9,30.27,NW,322,6.0,8.0,-999,-99.99,,,-99.99,,2013-04-28 00:12:00,
2013-04-27 17:22:00,53.0,-99.9,30.27,NW,314,5.0,9.0,-999,-99.99,,,-99.99,,2013-04-28 00:22:00,
2013-04-27 17:32:00,53.0,-99.9,30.27,NW,325,5.0,7.0,-999,-99.99,,,-99.99,,2013-04-28 00:32:00,
2013-04-27 17:43:00,53.0,-99.9,30.27,NNW,330,4.0,6.0,-999,-99.99,,,-99.99,,2013-04-28 00:43:00,
2013-04-27 17:52:00,53.0,-99.9,30.27,NW,312,4.0,5.0,-999,-99.99,,,-99.99,,2013-04-28 00:52:00,
2013-04-27 18:02:00,53.0,-99.9,30.27,NW,323,4.0,5.0,-999,-99.99,,,-99.99,,2013-04-28 01:02:00,
2013-04-27 18:12:00,53.0,-99.9,30.27,NW,305,4.0,6.0,-999,-99.99,,,-99.99,,2013-04-28 01:12:00,
2013-04-27 18:22:00,54.0,-99.9,30.26,NNW,333,2.0,6.0,-999,-99.99,,,-99.99,,2013-04-28 01:22:00,
2013-04-27 18:32:00,53.0,-99.9,30.25,West,277,2.0,4.0,-999,-99.99,,,-99.99,,2013-04-28 01:32:00,
2013-04-27 18:42:00,53.0,-99.9,30.26,NW,318,5.0,6.0,-999,-99.99,,,-99.99,,2013-04-28 01:42:00,
2013-04-27 18:52:00,53.0,-99.9,30.26,NW,318,6.0,8.0,-999,-99.99,,,-99.99,,2013-04-28 01:52:00,
2013-04-27 19:02:00,53.0,-99.9,30.26,NW,320,6.0,8.0,-999,-99.99,,,-99.99,,2013-04-28 02:02:00,
2013-04-27 19:12:00,53.0,-99.9,30.26,NW,326,5.0,7.0,-999,-99.99,,,-99.99,,2013-04-28 02:12:00,
2013-04-27 19:22:00,53.0,-99.9,30.26,NW,320,4.0,6.0,-999,-99.99,,,-99.99,,2013-04-28 02:22:00,
2013-04-27 19:32:00,53.0,-99.9,30.26,NW,323,3.0,4.0,-999,-99.99,,,-99.99,,2013-04-28 02:32:00,
2013-04-27 19:42:00,53.0,-99.9,30.26,NNW,336,4.0,6.0,-999,-99.99,,,-99.99,,2013-04-28 02:42:00,
2013-04-27 19:52:00,53.0,-99.9,30.26,NNW,332,4.0,8.0,-999,-99.99,,,-99.99,,2013-04-28 02:52:00,
2013-04-27 20:01:00,53.0,-99.9,30.26,NW,322,4.0,7.0,-999,-99.99,,,-99.99,,2013-04-28 03:01:00,
2013-04-27 20:12:00,53.0,-99.9,30.26,NW,324,5.0,9.0,-999,-99.99,,,-99.99,,2013-04-28 03:12:00,
2013-04-27 20:22:00,53.0,-99.9,30.26,NW,319,6.0,11.0,-999,-99.99,,,-99.99,,2013-04-28 03:22:00,
2013-04-27 20:33:00,53.0,-99.9,30.26,NNW,329,5.0,7.0,-999,-99.99,,,-99.99,,2013-04-28 03:33:00,
2013-04-27 20:43:00,53.0,-99.9,30.26,NW,324,5.0,6.0,-999,-99.99,,,-99.99,,2013-04-28 03:43:00,
2013-04-27 20:53:00,53.0,-99.9,30.26,NW,323,4.0,6.0,-999,-99.99,,,-99.99,,2013-04-28 03:53:00,
2013-04-27 21:03:00,53.0,-99.9,30.26,NW,317,4.0,6.0,-999,-99.99,,,-99.99,,2013-04-28 04:03:00,
2013-04-27 21:13:00,53.0,-99.9,30.26,NNW,331,3.0,6.0,-999,-99.99,,,-99.99,,2013-04-28 04:13:00,
2013-04-27 21:23:00,53.0,-99.9,30.27,NNW,333,4.0,6.0,-999,-99.99,,,-99.99,,2013-04-28 04:23:00,
2013-04-27 21:32:00,53.0,-99.9,30.27,NW,326,3.0,5.0,-999,-99.99,,,-99.99,,2013-04-28 04:32:00,
2013-04-27 21:43:00,53.0,-99.9,30.27,NW,324,4.0,5.0,-999,-99.99,,,-99.99,,2013-04-28 04:43:00,
2013-04-27 21:53:00,53.0,-99.9,30.28,NW,320,5.0,7.0,-999,-99.99,,,-99.99,,2013-04-28 04:53:00,
2013-04-27 22:02:00,53.0,-99.9,30.28,NNW,339,4.0,6.0,-999,-99.99,,,-99.99,,2013-04-28 05:02:00,
2013-04-27 22:12:00,53.0,-99.9,30.27,NNW,337,3.0,5.0,-999,-99.99,,,-99.99,,2013-04-28 05:12:00,
2013-04-27 22:22:00,53.0,-99.9,30.27,NW,325,2.0,3.0,-999,-99.99,,,-99.99,,2013-04-28 05:22:00,
2013-04-27 22:32:00,53.0,-99.9,30.27,North,355,3.0,4.0,-999,-99.99,,,-99.99,,2013-04-28 05:32:00,
2013-04-27 22:42:00,53.0,-99.9,30.27,NW,316,1.0,3.0,-999,-99.99,,,-99.99,,2013-04-28 05:42:00,
2013-04-27 22:52:00,53.0,-99.9,30.27,WNW,298,3.0,5.0,-999,-99.99,,,-99.99,,2013-04-28 05:52:00,
2013-04-27 23:01:00,52.0,-99.9,30.27,WNW,293,2.0,6.0,-999,-99.99,,,-99.99,,2013-04-28 06:01:00,
2013-04-27 23:13:00,52.0,-99.9,30.27,NNW,346,3.0,5.0,-999,-99.99,,,-99.99,,2013-04-28 06:13:00,
2013-04-27 23:22:00,52.0,-99.9,30.27,NNW,337,3.0,5.0,-999,-99.99,,,-99.99,,2013-04-28 06:22:00,
2013-04-27 23:32:00,52.0,-99.9,30.27,NW,311,2.0,5.0,-999,-99.99,,,-99.99,,2013-04-28 06:32:00,
2013-04-27 23:42:00,52.0,-99.9,30.27,NW,308,3.0,4.0,-999,-99.99,,,-99.99,,2013-04-28 06:42:00,
2013-04-27 23:52:00,52.0,-99.9,30.26,West,269,2.0,3.0,-999,-99.99,,,-99.99,,2013-04-28 06:52:00,